createdAt,value
2022-08-06T00:02:25.847Z,21.19
2022-08-06T00:05:01.343Z,20.94
2022-08-06T00:07:44.824Z,20.94
2022-08-06T00:10:29.232Z,20.94
2022-08-06T00:13:00.322Z,21.06
2022-08-06T00:16:10.080Z,21.00
2022-08-06T00:18:18.299Z,20.94
2022-08-06T00:20:46.479Z,20.81
2022-08-06T00:23:18.032Z,20.75
2022-08-06T00:25:52.155Z,20.75
2022-08-06T00:28:31.500Z,20.75
2022-08-06T00:31:06.170Z,20.75
2022-08-06T00:33:43.910Z,20.63
2022-08-06T00:36:28.371Z,20.63
2022-08-06T00:39:00.166Z,20.56
2022-08-06T00:41:41.505Z,20.75
2022-08-06T00:44:12.330Z,20.63
2022-08-06T00:46:42.746Z,20.56
2022-08-06T00:49:12.080Z,20.38
2022-08-06T00:51:50.253Z,20.38
2022-08-06T00:54:28.481Z,20.56
2022-08-06T00:57:07.563Z,20.44
2022-08-06T00:59:39.547Z,20.44
2022-08-06T01:02:09.947Z,20.44
2022-08-06T01:04:38.447Z,20.44
2022-08-06T01:07:09.138Z,20.31
2022-08-06T01:09:45.943Z,20.38
2022-08-06T01:12:33.292Z,19.81
2022-08-06T01:15:05.174Z,19.88
2022-08-06T01:18:06.030Z,20.00
2022-08-06T01:21:57.682Z,20.38
2022-08-06T01:23:53.857Z,20.06
2022-08-06T01:26:45.163Z,20.00
2022-08-06T01:29:37.944Z,20.19
2022-08-06T01:32:19.208Z,20.19
2022-08-06T01:34:56.576Z,20.25
2022-08-06T01:37:38.411Z,20.31
2022-08-06T01:40:17.392Z,20.50
2022-08-06T01:42:54.218Z,20.19
2022-08-06T01:45:42.348Z,20.38
2022-08-06T01:48:28.657Z,20.31
2022-08-06T01:51:03.987Z,20.25
2022-08-06T01:54:06.097Z,20.13
2022-08-06T01:56:31.036Z,20.19
2022-08-06T01:59:16.541Z,20.31
2022-08-06T02:01:53.695Z,20.19
2022-08-06T02:04:27.822Z,20.38
2022-08-06T02:06:58.042Z,20.25
2022-08-06T02:09:33.621Z,20.19
2022-08-06T02:12:17.625Z,20.25
2022-08-06T02:15:00.470Z,20.13
2022-08-06T02:18:04.002Z,20.13
2022-08-06T02:20:35.964Z,20.25
2022-08-06T02:23:09.289Z,20.06
2022-08-06T02:25:41.919Z,20.19
2022-08-06T02:28:25.173Z,19.88
2022-08-06T02:30:55.563Z,20.00
2022-08-06T02:33:31.981Z,19.94
2022-08-06T02:36:27.139Z,19.94
2022-08-06T02:38:57.745Z,19.88
2022-08-06T02:41:53.607Z,20.06
2022-08-06T02:44:45.947Z,20.06
2022-08-06T02:48:02.074Z,20.13
2022-08-06T02:50:38.731Z,19.88
2022-08-06T02:53:24.775Z,20.00
2022-08-06T02:55:59.006Z,20.13
2022-08-06T02:58:57.960Z,20.13
2022-08-06T03:01:43.026Z,20.06
2022-08-06T03:04:12.362Z,20.00
2022-08-06T03:06:45.202Z,19.94
2022-08-06T03:09:16.334Z,19.88
2022-08-06T03:11:47.535Z,19.88
2022-08-06T03:15:04.148Z,19.88
2022-08-06T03:17:07.543Z,19.69
2022-08-06T03:19:56.455Z,19.75
2022-08-06T03:22:35.944Z,19.81
2022-08-06T03:25:15.027Z,19.81
2022-08-06T03:27:44.970Z,19.75
2022-08-06T03:30:31.346Z,19.63
2022-08-06T03:33:41.870Z,19.63
2022-08-06T03:36:03.925Z,19.69
2022-08-06T03:38:39.892Z,19.44
2022-08-06T03:41:18.122Z,19.38
2022-08-06T03:43:55.826Z,19.56
2022-08-06T03:47:18.990Z,19.63
2022-08-06T03:50:13.562Z,19.63
2022-08-06T03:52:52.814Z,19.63
2022-08-06T03:55:25.703Z,19.69
2022-08-06T03:58:03.135Z,19.56
2022-08-06T04:00:38.348Z,19.75
2022-08-06T04:03:09.573Z,19.81
2022-08-06T04:05:47.985Z,19.75
2022-08-06T04:08:17.028Z,19.81
2022-08-06T04:10:52.968Z,19.88
2022-08-06T04:13:40.519Z,20.06
2022-08-06T04:16:29.994Z,20.06
2022-08-06T04:19:04.007Z,20.19
2022-08-06T04:23:08.562Z,20.19
2022-08-06T04:24:18.894Z,20.31
2022-08-06T04:26:51.956Z,20.44
2022-08-06T04:29:22.083Z,20.69
2022-08-06T04:32:13.078Z,20.81
2022-08-06T04:36:02.709Z,20.88
2022-08-06T04:37:40.408Z,21.31
2022-08-06T04:40:15.379Z,21.50
2022-08-06T04:42:55.835Z,21.50
2022-08-06T04:46:17.148Z,21.63
2022-08-06T04:48:21.507Z,21.63
2022-08-06T04:50:49.312Z,21.75
2022-08-06T04:53:42.695Z,21.75
2022-08-06T04:56:15.148Z,21.69
2022-08-06T04:58:54.363Z,21.81
2022-08-06T05:01:21.832Z,22.00
2022-08-06T05:04:13.286Z,22.13
2022-08-06T05:07:02.507Z,22.38
2022-08-06T05:09:42.506Z,22.31
2022-08-06T05:12:39.682Z,22.44
2022-08-06T05:15:41.794Z,22.50
2022-08-06T05:19:20.604Z,22.63
2022-08-06T05:21:21.925Z,22.75
2022-08-06T05:23:53.393Z,22.88
2022-08-06T05:26:25.109Z,23.06
2022-08-06T05:28:54.357Z,23.13
2022-08-06T05:31:46.205Z,23.31
2022-08-06T05:34:15.054Z,23.81
2022-08-06T05:36:43.932Z,24.06
2022-08-06T05:39:57.053Z,24.06
2022-08-06T05:41:59.874Z,24.00
2022-08-06T05:44:29.574Z,24.06
2022-08-06T05:47:08.423Z,24.19
2022-08-06T05:49:55.684Z,24.13
2022-08-06T05:52:52.122Z,24.13
2022-08-06T05:55:51.843Z,24.13
2022-08-06T05:58:54.743Z,24.06
2022-08-06T06:01:24.195Z,24.00
2022-08-06T06:03:57.072Z,24.06
2022-08-06T06:06:27.771Z,24.13
2022-08-06T06:08:59.223Z,24.06
2022-08-06T06:11:55.192Z,24.00
2022-08-06T06:14:38.379Z,24.00
2022-08-06T06:17:49.075Z,23.94
2022-08-06T06:21:03.379Z,23.94
2022-08-06T06:23:33.820Z,23.94
2022-08-06T06:26:32.463Z,23.88
2022-08-06T06:29:55.521Z,23.81
2022-08-06T06:32:42.607Z,23.81
2022-08-06T06:35:22.523Z,23.69
2022-08-06T06:38:14.247Z,23.69
2022-08-06T06:41:20.583Z,23.69
2022-08-06T06:44:17.801Z,23.69
2022-08-06T06:47:02.679Z,23.63
2022-08-06T06:49:59.981Z,23.63
2022-08-06T06:52:32.713Z,23.56
2022-08-06T06:55:17.097Z,23.56
2022-08-06T06:57:59.276Z,23.56
2022-08-06T07:00:44.418Z,23.56
2022-08-06T07:03:17.031Z,23.44
2022-08-06T07:06:05.410Z,23.44
2022-08-06T07:08:45.922Z,23.44
2022-08-06T07:11:23.537Z,23.44
2022-08-06T07:13:59.065Z,23.44
2022-08-06T07:16:35.791Z,23.31
2022-08-06T07:19:10.269Z,23.25
2022-08-06T07:21:42.443Z,23.25
2022-08-06T07:24:38.193Z,23.25
2022-08-06T07:27:14.742Z,23.31
2022-08-06T07:29:49.213Z,23.31
2022-08-06T07:32:33.095Z,23.38
2022-08-06T07:35:12.836Z,23.44
2022-08-06T07:38:07.639Z,23.50
2022-08-06T07:41:09.300Z,23.56
2022-08-06T07:43:53.707Z,23.63
2022-08-06T07:46:35.168Z,23.75
2022-08-06T07:49:08.495Z,23.75
2022-08-06T07:51:44.233Z,23.75
2022-08-06T07:54:12.999Z,24.00
2022-08-06T07:56:59.802Z,24.25
2022-08-06T07:59:30.606Z,24.56
2022-08-06T08:02:02.682Z,24.44
2022-08-06T08:04:52.382Z,24.44
2022-08-06T08:07:37.163Z,24.31
2022-08-06T08:10:07.022Z,24.25
2022-08-06T08:12:38.452Z,24.06
2022-08-06T08:15:17.644Z,23.88
2022-08-06T08:17:46.897Z,23.63
2022-08-06T08:20:32.693Z,23.88
2022-08-06T08:23:05.800Z,23.88
2022-08-06T08:25:40.536Z,23.75
2022-08-06T08:28:15.213Z,23.88
2022-08-06T08:30:47.988Z,23.75
2022-08-06T08:33:19.679Z,23.81
2022-08-06T08:36:00.902Z,23.50
2022-08-06T08:38:31.771Z,23.81
2022-08-06T08:41:21.937Z,23.81
2022-08-06T08:44:04.547Z,24.00
2022-08-06T08:46:42.202Z,23.88
2022-08-06T08:49:37.406Z,23.81
2022-08-06T08:52:11.328Z,23.81
2022-08-06T08:54:47.785Z,23.69
2022-08-06T08:58:38.682Z,23.63
2022-08-06T09:00:10.930Z,23.81
2022-08-06T09:02:49.989Z,24.75
2022-08-06T09:05:19.410Z,24.75
2022-08-06T09:08:01.128Z,24.69
2022-08-06T09:10:32.600Z,24.44
2022-08-06T09:13:22.229Z,24.25
2022-08-06T09:18:27.128Z,24.19
2022-08-06T09:20:58.048Z,23.94
2022-08-06T09:23:29.340Z,23.75
2022-08-06T09:26:06.821Z,23.88
2022-08-06T09:28:45.260Z,23.81
2022-08-06T09:31:21.961Z,23.88
2022-08-06T09:34:28.700Z,23.75
2022-08-06T09:36:57.456Z,23.75
2022-08-06T09:39:46.433Z,23.69
2022-08-06T09:42:18.442Z,23.75
2022-08-06T09:45:15.180Z,23.63
2022-08-06T09:47:58.805Z,23.63
2022-08-06T09:50:39.816Z,23.75
2022-08-06T09:53:14.379Z,23.75
2022-08-06T09:55:43.459Z,23.50
2022-08-06T09:58:12.585Z,23.44
2022-08-06T10:00:41.067Z,23.56
2022-08-06T10:04:02.164Z,23.38
2022-08-06T10:06:21.913Z,23.31
2022-08-06T10:09:21.066Z,23.25
2022-08-06T10:11:57.050Z,23.19
2022-08-06T10:14:34.935Z,23.19
2022-08-06T10:17:19.423Z,23.06
2022-08-06T10:20:04.831Z,22.94
2022-08-06T10:22:38.354Z,22.69
2022-08-06T10:25:12.810Z,22.56
2022-08-06T10:27:42.091Z,22.44
2022-08-06T10:32:59.476Z,22.50
2022-08-06T10:35:29.730Z,22.56
2022-08-06T10:38:14.472Z,22.56
2022-08-06T10:40:58.862Z,22.56
2022-08-06T10:43:34.737Z,22.75
2022-08-06T10:46:07.102Z,22.63
2022-08-06T10:50:23.309Z,22.81
2022-08-06T10:51:55.953Z,22.88
2022-08-06T10:54:19.680Z,22.94
2022-08-06T10:56:48.239Z,22.88
2022-08-06T11:02:33.360Z,22.63
2022-08-06T11:05:17.932Z,22.81
2022-08-06T11:08:40.443Z,22.88
2022-08-06T11:11:25.236Z,22.75
2022-08-06T11:14:02.943Z,22.88
2022-08-06T11:16:34.310Z,22.69
2022-08-06T11:19:13.377Z,22.63
2022-08-06T11:21:58.643Z,22.75
2022-08-06T11:24:32.239Z,22.94
2022-08-06T11:27:11.042Z,22.75
2022-08-06T11:30:13.490Z,22.81
2022-08-06T11:32:47.474Z,22.63
2022-08-06T11:35:51.323Z,22.88
2022-08-06T11:38:50.404Z,23.00
2022-08-06T11:41:51.427Z,22.88
2022-08-06T11:44:25.021Z,23.00
2022-08-06T11:47:31.156Z,22.81
2022-08-06T11:50:27.483Z,23.06
2022-08-06T11:52:56.112Z,22.75
2022-08-06T11:55:25.047Z,22.94
2022-08-06T11:58:33.221Z,22.88
2022-08-06T12:01:34.794Z,23.19
2022-08-06T12:03:52.260Z,22.88
2022-08-06T12:06:29.900Z,22.69
2022-08-06T12:09:23.928Z,22.75
2022-08-06T12:12:28.450Z,22.69
2022-08-06T12:15:58.968Z,22.56
2022-08-06T12:18:20.983Z,22.44
2022-08-06T12:20:56.169Z,22.44
2022-08-06T12:23:54.497Z,22.44
2022-08-06T12:26:13.577Z,22.38
2022-08-06T12:28:44.076Z,22.38
2022-08-06T12:31:35.806Z,22.31
2022-08-06T12:34:00.023Z,22.19
2022-08-06T12:36:40.799Z,22.44
2022-08-06T12:39:19.913Z,22.25
2022-08-06T12:41:54.441Z,22.38
2022-08-06T12:44:56.258Z,22.38
2022-08-06T12:48:02.594Z,22.50
2022-08-06T12:50:28.762Z,22.63
2022-08-06T12:53:06.463Z,22.50
2022-08-06T12:55:55.818Z,22.31
2022-08-06T12:58:42.716Z,22.50
2022-08-06T13:02:07.318Z,22.38
2022-08-06T13:04:10.498Z,22.69
2022-08-06T13:06:44.028Z,22.56
2022-08-06T13:09:15.154Z,22.69
2022-08-06T13:11:42.715Z,22.63
2022-08-06T13:14:18.854Z,22.75
2022-08-06T13:16:57.602Z,22.69
2022-08-06T13:19:28.164Z,22.44
2022-08-06T13:22:05.788Z,22.31
2022-08-06T13:24:35.183Z,22.44
2022-08-06T13:27:06.125Z,22.25
2022-08-06T13:30:34.278Z,22.44
2022-08-06T13:32:33.902Z,22.19
2022-08-06T13:35:17.281Z,22.44
2022-08-06T13:37:57.329Z,22.44
2022-08-06T13:40:51.488Z,22.38
2022-08-06T13:43:55.348Z,22.44
2022-08-06T13:46:29.639Z,22.31
2022-08-06T13:49:12.220Z,22.31
2022-08-06T13:51:48.376Z,22.50
2022-08-06T13:54:20.953Z,22.50
2022-08-06T13:56:52.039Z,22.56
2022-08-06T13:59:24.421Z,22.69
2022-08-06T14:02:09.095Z,22.50
2022-08-06T14:04:36.685Z,22.44
2022-08-06T14:07:05.378Z,22.44
2022-08-06T14:09:41.115Z,22.38
2022-08-06T14:12:20.487Z,22.31
2022-08-06T14:14:50.409Z,22.56
2022-08-06T14:17:19.518Z,22.50
2022-08-06T14:20:16.192Z,22.44
2022-08-06T14:22:37.106Z,22.63
2022-08-06T14:25:08.402Z,22.38
2022-08-06T14:27:43.528Z,22.19
2022-08-06T14:30:27.800Z,22.38
2022-08-06T14:33:26.771Z,22.44
2022-08-06T14:36:07.854Z,22.63
2022-08-06T14:38:35.532Z,22.50
2022-08-06T14:41:50.356Z,22.63
2022-08-06T14:44:31.252Z,22.63
2022-08-06T14:46:59.899Z,22.75
2022-08-06T14:49:33.096Z,22.38
2022-08-06T14:52:19.922Z,22.44
2022-08-06T14:54:56.222Z,22.56
2022-08-06T14:58:03.281Z,22.50
2022-08-06T15:00:34.759Z,22.44
2022-08-06T15:03:07.878Z,22.31
2022-08-06T15:06:00.528Z,22.50
2022-08-06T15:08:28.659Z,22.44
2022-08-06T15:10:59.847Z,22.38
2022-08-06T15:13:36.488Z,22.50
2022-08-06T15:16:10.913Z,22.19
2022-08-06T15:19:20.917Z,22.31
2022-08-06T15:21:54.878Z,22.44
2022-08-06T15:24:38.638Z,22.25
2022-08-06T15:27:09.607Z,22.19
2022-08-06T15:29:47.732Z,22.00
2022-08-06T15:32:17.575Z,22.00
2022-08-06T15:34:48.829Z,22.25
2022-08-06T15:37:53.023Z,22.25
2022-08-06T15:40:14.219Z,22.06
2022-08-06T15:42:43.270Z,22.31
2022-08-06T15:45:50.659Z,22.50
2022-08-06T15:48:12.924Z,22.13
2022-08-06T15:51:30.424Z,22.19
2022-08-06T15:53:40.187Z,22.31
2022-08-06T15:56:10.913Z,21.94
2022-08-06T15:58:38.316Z,21.88
2022-08-06T16:01:08.575Z,22.00
2022-08-06T16:03:37.829Z,22.13
2022-08-06T16:06:25.985Z,21.88
2022-08-06T16:09:00.054Z,21.94
2022-08-06T16:11:28.654Z,21.94
2022-08-06T16:14:19.838Z,21.75
2022-08-06T16:16:59.936Z,21.75
2022-08-06T16:19:27.507Z,21.63
2022-08-06T16:21:55.273Z,21.75
2022-08-06T16:24:24.371Z,21.81
2022-08-06T16:26:57.445Z,21.75
2022-08-06T16:29:25.447Z,21.56
2022-08-06T16:31:54.987Z,21.63
2022-08-06T16:34:29.969Z,21.63
2022-08-06T16:37:00.743Z,21.50
2022-08-06T16:39:36.433Z,21.38
2022-08-06T16:42:10.331Z,21.50
2022-08-06T16:50:26.303Z,21.50
2022-08-06T16:54:12.857Z,21.25
2022-08-06T16:55:45.080Z,21.25
2022-08-06T16:58:16.620Z,21.19
2022-08-06T17:02:14.903Z,21.19
2022-08-06T17:06:42.133Z,21.06
2022-08-06T17:09:16.177Z,21.13
2022-08-06T17:11:57.946Z,21.13
2022-08-06T17:14:29.140Z,21.19
2022-08-06T17:16:58.906Z,21.06
2022-08-06T17:19:29.482Z,21.06
2022-08-06T17:22:04.647Z,21.00
2022-08-06T17:24:42.483Z,20.88
2022-08-06T17:27:16.051Z,20.81
2022-08-06T17:30:07.383Z,20.88
2022-08-06T17:32:46.078Z,20.56
2022-08-06T17:35:16.536Z,20.75
2022-08-06T17:37:50.161Z,20.75
2022-08-06T17:42:29.200Z,21.50
2022-08-06T17:43:23.133Z,20.56
2022-08-06T17:46:25.172Z,20.63
2022-08-06T17:48:50.956Z,20.69
2022-08-06T17:51:22.226Z,20.63
2022-08-06T17:53:52.079Z,20.63
2022-08-06T17:56:32.302Z,20.44
2022-08-06T17:59:18.892Z,20.44
2022-08-06T18:01:51.061Z,20.56
2022-08-06T18:04:32.997Z,20.50
2022-08-06T18:07:12.337Z,20.31
2022-08-06T18:10:08.693Z,20.44
2022-08-06T18:12:49.108Z,20.44
2022-08-06T18:15:47.125Z,20.38
2022-08-06T18:18:19.234Z,20.44
2022-08-06T18:20:48.659Z,20.44
2022-08-06T18:23:21.332Z,20.31
2022-08-06T18:26:02.308Z,20.38
2022-08-06T18:28:39.936Z,20.31
2022-08-06T18:31:20.037Z,20.13
2022-08-06T18:33:53.529Z,20.25
2022-08-06T18:36:32.824Z,20.25
2022-08-06T18:39:13.389Z,20.06
2022-08-06T18:41:57.588Z,20.06
2022-08-06T18:44:28.174Z,20.13
2022-08-06T18:47:12.010Z,20.19
2022-08-06T18:49:57.880Z,20.06
2022-08-06T18:52:39.375Z,20.13
2022-08-06T18:55:17.616Z,19.94
2022-08-06T18:58:04.987Z,20.06
2022-08-06T19:00:34.842Z,19.94
2022-08-06T19:03:02.600Z,19.88
2022-08-06T19:05:40.379Z,20.00
2022-08-06T19:08:12.405Z,19.94
2022-08-06T19:10:45.226Z,19.94
2022-08-06T19:13:15.069Z,20.00
2022-08-06T19:15:51.255Z,20.00
2022-08-06T19:18:25.440Z,20.00
2022-08-06T19:20:53.476Z,19.88
2022-08-06T19:24:00.100Z,19.69
2022-08-06T19:26:12.279Z,19.63
2022-08-06T19:28:49.014Z,19.63
2022-08-06T19:31:23.773Z,19.56
2022-08-06T19:34:14.172Z,19.63
2022-08-06T19:36:43.271Z,19.63
2022-08-06T19:39:58.466Z,19.69
2022-08-06T19:42:01.142Z,19.69
2022-08-06T19:44:38.781Z,19.69
2022-08-06T19:47:21.735Z,19.69
2022-08-06T19:50:00.548Z,19.69
2022-08-06T19:52:30.539Z,19.69
2022-08-06T19:54:59.415Z,19.63
2022-08-06T19:57:46.759Z,19.69
2022-08-06T20:00:50.463Z,19.31
2022-08-06T20:03:02.608Z,19.44
2022-08-06T20:06:20.884Z,19.38
2022-08-06T20:08:33.626Z,19.38
2022-08-06T20:11:09.587Z,19.44
2022-08-06T20:13:53.037Z,19.38
2022-08-06T20:16:20.394Z,19.38
2022-08-06T20:18:49.272Z,19.50
2022-08-06T20:21:20.053Z,19.44
2022-08-06T20:24:04.572Z,19.31
2022-08-06T20:26:36.729Z,19.25
2022-08-06T20:29:21.807Z,19.38
2022-08-06T20:31:55.232Z,19.38
2022-08-06T20:34:29.079Z,19.44
2022-08-06T20:36:57.329Z,19.44
2022-08-06T20:39:29.700Z,19.44
2022-08-06T20:42:07.503Z,19.31
2022-08-06T20:44:39.299Z,19.19
2022-08-06T20:47:46.364Z,19.13
2022-08-06T20:50:12.144Z,19.06
2022-08-06T20:52:41.355Z,19.13
2022-08-06T20:55:13.819Z,18.88
2022-08-06T20:57:47.484Z,19.00
2022-08-06T21:00:28.082Z,18.88
2022-08-06T21:03:28.182Z,18.94
2022-08-06T21:05:51.161Z,19.00
2022-08-06T21:08:26.765Z,19.00
2022-08-06T21:10:57.818Z,18.88
2022-08-06T21:13:35.394Z,18.94
2022-08-06T21:16:29.058Z,18.69
2022-08-06T21:19:01.438Z,18.75
2022-08-06T21:21:31.755Z,18.69
2022-08-06T21:24:00.668Z,18.75
2022-08-06T21:26:29.622Z,18.81
2022-08-06T21:30:07.658Z,18.75
2022-08-06T21:31:49.476Z,18.56
2022-08-06T21:34:17.921Z,18.69
2022-08-06T21:36:47.711Z,18.75
2022-08-06T21:39:17.684Z,18.56
2022-08-06T21:41:59.215Z,18.63
2022-08-06T21:44:31.989Z,18.56
2022-08-06T21:47:01.014Z,18.44
2022-08-06T21:49:59.735Z,18.44
2022-08-06T21:52:28.010Z,18.50
2022-08-06T21:56:35.147Z,18.56
2022-08-06T21:58:02.634Z,18.56
2022-08-06T22:00:36.871Z,18.50
2022-08-06T22:04:34.635Z,18.44
2022-08-06T22:06:20.154Z,18.50
2022-08-06T22:08:53.009Z,18.50
2022-08-06T22:12:36.789Z,18.44
2022-08-06T22:14:16.517Z,18.44
2022-08-06T22:16:54.283Z,18.38
2022-08-06T22:19:33.235Z,18.38
2022-08-06T22:22:07.663Z,18.31
2022-08-06T22:24:37.124Z,18.31
2022-08-06T22:27:06.740Z,18.31
2022-08-06T22:29:59.159Z,18.31
2022-08-06T22:32:28.302Z,18.50
2022-08-06T22:34:58.555Z,18.38
2022-08-06T22:38:15.299Z,18.38
2022-08-06T22:40:13.514Z,18.38
2022-08-06T22:42:59.171Z,18.50
2022-08-06T22:46:00.261Z,18.50
2022-08-06T22:48:18.345Z,18.19
2022-08-06T22:50:56.665Z,18.31
2022-08-06T22:54:30.001Z,18.38
2022-08-06T22:56:12.586Z,18.25
2022-08-06T22:59:03.527Z,18.31
2022-08-06T23:02:06.690Z,18.19
2022-08-06T23:04:14.653Z,18.19
2022-08-06T23:06:43.985Z,18.31
2022-08-06T23:09:17.172Z,18.19
2022-08-06T23:11:58.939Z,18.19
2022-08-06T23:14:32.303Z,18.25
2022-08-06T23:17:02.604Z,18.31
2022-08-06T23:19:34.946Z,18.44
2022-08-06T23:22:06.648Z,18.38
2022-08-06T23:24:37.228Z,18.19
2022-08-06T23:27:16.180Z,18.19
2022-08-06T23:30:09.530Z,18.19
2022-08-06T23:32:35.890Z,18.31
2022-08-06T23:35:08.976Z,18.00
2022-08-06T23:38:26.797Z,18.13
2022-08-06T23:40:43.669Z,18.25
2022-08-06T23:43:17.304Z,18.19
2022-08-06T23:45:48.203Z,18.13
2022-08-06T23:48:16.854Z,18.13
2022-08-06T23:50:52.708Z,18.25
2022-08-06T23:54:07.431Z,18.19
2022-08-06T23:56:14.549Z,18.06
2022-08-06T23:58:49.178Z,18.06
